»·PEaware :: N83680 KBFL-L71

N83680 :: KBFL-L71

FLIGHT INFORMATION

Flight Status: Arrived
Operator: Privately registered:
United States
More flights under this callsign
Pilot: Alan J. (5709)
Aircraft: PIPER PA-23-235/250 AZTEC
(PA27)
More flights by this aircraft type
Origin: KBFL Meadows
United States
Destination: L71 California City Mun
United States
More flights between these airports :: More routes between these airports
Route: +
File this flight plan on PilotEdge
Remarks:
Altitude:
(Current/Filed)
0ft
Speed:
(Current/Filed)
0kts
Departed: 10-Jun-16 12:57 PM
Arrived: 10-Jun-16 02:10 PM
Distance/Time
Traveled:
54nm/1:13
Distance/Time
To Go:
Arrived

Flight Plot

Page will automatically refresh every two minutes.

Flight plan parsing failed; only flown route is shown


Map Options




Map Legend


Flown Route
Filed Route
Departure Airport
Arrival Airport
Navaid (VOR, NDB)
Fix

Horizontal Profiles

Position Reports

Time Latitude Longitude Heading Altitude Ground
Speed
10-Jun-16 12:46 35.432498 -119.048422 195 510ft 2kts
10-Jun-16 12:47 35.431382 -119.048698 135 510ft 4kts
10-Jun-16 12:48 35.431116 -119.048368 135 510ft 0kts
10-Jun-16 12:49 35.429283 -119.048340 136 510ft 16kts
10-Jun-16 12:50 35.427524 -119.046197 135 510ft 7kts
10-Jun-16 12:51 35.426227 -119.045284 271 510ft 0kts
10-Jun-16 12:52 35.426227 -119.045293 271 510ft 0kts
10-Jun-16 12:53 35.425735 -119.046302 294 510ft 10kts
10-Jun-16 12:54 35.433563 -119.055810 316 553ft 79kts
10-Jun-16 12:55 35.453725 -119.071715 12 1176ft 102kts
10-Jun-16 12:56 35.446346 -119.040801 139 1780ft 128kts
10-Jun-16 12:57 35.417564 -119.009639 156 2042ft 148kts
10-Jun-16 12:58 35.374826 -118.999715 174 1996ft 158kts
10-Jun-16 12:59 35.330852 -118.987354 162 2010ft 157kts
10-Jun-16 13:00 35.289787 -118.967477 159 2110ft 158kts
10-Jun-16 13:01 35.246546 -118.948683 163 1913ft 154kts
10-Jun-16 13:02 35.207118 -118.944689 183 1883ft 136kts
10-Jun-16 13:03 35.174148 -118.949515 192 1494ft 96kts
10-Jun-16 13:04 35.148112 -118.954642 172 897ft 90kts
10-Jun-16 13:05 35.147345 -118.929302 70 970ft 84kts
10-Jun-16 13:06 35.168042 -118.924529 349 454ft 74kts
10-Jun-16 13:07 35.177696 -118.925865 174 343ft 2kts
10-Jun-16 13:08 35.172912 -118.925234 177 343ft 14kts
10-Jun-16 13:09 35.172095 -118.925101 354 343ft 0kts
10-Jun-16 13:10 35.172096 -118.925101 354 343ft 0kts
10-Jun-16 13:11 35.171959 -118.925085 353 343ft 0kts
10-Jun-16 13:13 35.171255 -118.927398 359 344ft 0kts
10-Jun-16 13:14 35.186677 -118.925846 1 566ft 92kts
10-Jun-16 13:15 35.217067 -118.930341 337 1305ft 126kts
10-Jun-16 13:16 35.251946 -118.945336 326 1830ft 144kts
10-Jun-16 13:17 35.288115 -118.970923 328 2027ft 148kts
10-Jun-16 13:18 35.326892 -118.990646 343 2005ft 152kts
10-Jun-16 13:19 35.368339 -118.999313 340 1902ft 147kts
10-Jun-16 13:20 35.403602 -119.020113 315 1376ft 124kts
10-Jun-16 13:21 35.423654 -119.043849 310 762ft 80kts
10-Jun-16 13:22 35.436540 -119.059428 312 510ft 43kts
10-Jun-16 13:23 35.438619 -119.060345 83 510ft 0kts
10-Jun-16 13:24 35.438654 -119.059966 83 510ft 8kts
10-Jun-16 13:25 35.434429 -119.054486 137 510ft 20kts
10-Jun-16 13:26 35.431370 -119.050809 134 510ft 7kts
10-Jun-16 13:27 35.431862 -119.048846 141 510ft 0kts
10-Jun-16 13:28 35.431861 -119.048846 141 510ft 0kts
10-Jun-16 13:29 35.431860 -119.048845 141 510ft 0kts
10-Jun-16 13:30 35.430247 -119.048831 225 510ft 13kts
10-Jun-16 13:31 35.426970 -119.045478 135 510ft 6kts
10-Jun-16 13:32 35.426010 -119.045682 225 510ft 0kts
10-Jun-16 13:33 35.427071 -119.048055 315 510ft 27kts
10-Jun-16 13:34 35.444909 -119.064348 341 874ft 113kts
10-Jun-16 13:35 35.460077 -119.033170 110 1877ft 137kts
10-Jun-16 13:36 35.428923 -119.009471 162 2768ft 125kts
10-Jun-16 13:37 35.399213 -118.986922 142 3643ft 125kts
10-Jun-16 13:38 35.372496 -118.959676 140 4789ft 122kts
10-Jun-16 13:39 35.346226 -118.930653 138 6090ft 131kts
10-Jun-16 13:40 35.319423 -118.899063 137 7405ft 136kts
10-Jun-16 13:41 35.292687 -118.865710 136 8706ft 137kts
10-Jun-16 13:42 35.261023 -118.841390 148 9661ft 138kts
10-Jun-16 13:43 35.231868 -118.810223 143 10657ft 139kts
10-Jun-16 13:44 35.202586 -118.777208 144 11563ft 157kts
10-Jun-16 13:45 35.167147 -118.738196 144 11560ft 175kts
10-Jun-16 13:46 35.131265 -118.698460 144 11593ft 172kts
10-Jun-16 13:47 35.096145 -118.658989 143 11594ft 169kts
10-Jun-16 13:48 35.061468 -118.619365 142 11227ft 184kts
10-Jun-16 13:49 35.022581 -118.575553 141 10416ft 188kts
10-Jun-16 13:50 34.984937 -118.527384 132 9215ft 202kts
10-Jun-16 13:51 34.948558 -118.477942 134 8286ft 191kts
10-Jun-16 13:52 34.944257 -118.418049 52 7101ft 201kts
10-Jun-16 13:53 34.974175 -118.360589 60 6204ft 199kts
10-Jun-16 13:54 35.003085 -118.303823 59 5283ft 201kts
10-Jun-16 13:55 35.026111 -118.259274 56 5227ft 174kts
10-Jun-16 13:56 35.055608 -118.202233 56 5212ft 168kts
10-Jun-16 13:57 35.076228 -118.162298 58 5202ft 164kts
10-Jun-16 13:58 35.099077 -118.114524 79 5203ft 161kts
10-Jun-16 13:59 35.113809 -118.060875 46 5199ft 170kts
10-Jun-16 14:00 35.150373 -118.018693 30 4356ft 178kts
10-Jun-16 14:01 35.196272 -118.019791 352 3789ft 161kts
10-Jun-16 14:02 35.191171 -118.042985 148 3506ft 149kts
10-Jun-16 14:03 35.188535 -118.000335 72 3430ft 126kts
10-Jun-16 14:04 35.172424 -117.971146 169 3491ft 107kts
10-Jun-16 14:05 35.156813 -117.990283 256 2739ft 78kts
10-Jun-16 14:06 35.151836 -118.013948 255 2457ft 43kts
10-Jun-16 14:07 35.150964 -118.015530 102 2457ft 5kts
10-Jun-16 14:08 35.150817 -118.013764 170 2457ft 7kts
10-Jun-16 14:09 35.149999 -118.013906 169 2457ft 0kts
10-Jun-16 14:10 35.149999 -118.013906 169 2457ft 0kts
10-Jun-16 14:11 35.149952 -118.013896 169 2457ft 0kts
10-Jun-16 14:12 35.149909 -118.013887 169 2457ft 0kts
10-Jun-16 14:13 35.149909 -118.013887 169 2457ft 0kts
10-Jun-16 14:14 35.149909 -118.013887 169 2457ft 0kts
10-Jun-16 14:15 35.149898 -118.013884 169 2457ft 0kts
10-Jun-16 14:16 35.149898 -118.013884 169 2457ft 0kts

Navigation Log

Ident Type
Flight plan parsing failed, navigation log unavailable